createdAt,value
2018-04-15T00:00:11.498Z,0
2018-04-15T00:00:57.377Z,0
2018-04-15T00:01:57.409Z,0
2018-04-15T00:02:57.162Z,0
2018-04-15T00:03:57.179Z,0
2018-04-15T00:04:57.199Z,0
2018-04-15T00:05:57.480Z,0
2018-04-15T00:06:57.498Z,0
2018-04-15T00:07:57.526Z,0
2018-04-15T00:08:57.545Z,0
2018-04-15T00:09:57.574Z,0
2018-04-15T00:10:57.586Z,0
2018-04-15T00:12:12.260Z,0
2018-04-15T00:13:26.939Z,0
2018-04-15T00:13:57.646Z,0
2018-04-15T00:14:57.662Z,0
2018-04-15T00:15:57.432Z,0
2018-04-15T00:16:57.709Z,0
2018-04-15T00:17:57.469Z,0
2018-04-15T00:18:57.744Z,0
2018-04-15T00:19:57.768Z,0
2018-04-15T00:20:57.791Z,0
2018-04-15T00:21:57.553Z,0
2018-04-15T00:22:57.308Z,0
2018-04-15T00:23:57.848Z,0
2018-04-15T00:24:57.875Z,0
2018-04-15T00:25:57.632Z,0
2018-04-15T00:26:57.917Z,0
2018-04-15T00:27:57.931Z,0
2018-04-15T00:29:12.608Z,0
2018-04-15T00:30:12.372Z,0
2018-04-15T00:30:57.990Z,0
2018-04-15T00:31:58.110Z,0
2018-04-15T00:32:58.034Z,0
2018-04-15T00:33:58.051Z,0
2018-04-15T00:34:58.138Z,0
2018-04-15T00:35:57.841Z,0
2018-04-15T00:36:58.124Z,0
2018-04-15T00:38:12.798Z,0
2018-04-15T00:38:58.152Z,0
2018-04-15T00:39:57.913Z,0
2018-04-15T00:41:57.961Z,0
2018-04-15T00:42:58.338Z,0
2018-04-15T00:43:58.256Z,0
2018-04-15T00:45:12.933Z,0
2018-04-15T00:45:58.297Z,0
2018-04-15T00:47:58.334Z,0
2018-04-15T00:48:58.353Z,0
2018-04-15T00:49:58.379Z,0
2018-04-15T00:50:58.392Z,0
2018-04-15T00:51:58.158Z,0
2018-04-15T00:52:57.919Z,0
2018-04-15T00:53:58.452Z,0
2018-04-15T00:54:58.482Z,0
2018-04-15T00:55:58.238Z,0
2018-04-15T00:56:58.519Z,0
2018-04-15T00:57:58.532Z,0
2018-04-15T00:59:13.218Z,0
2018-04-15T00:59:58.582Z,0
2018-04-15T01:01:27.913Z,0
2018-04-15T01:01:58.615Z,0
2018-04-15T01:02:58.636Z,0
2018-04-15T01:03:58.138Z,0
2018-04-15T01:04:58.673Z,0
2018-04-15T01:05:58.435Z,0
2018-04-15T01:06:58.716Z,0
2018-04-15T01:08:13.394Z,0
2018-04-15T01:08:58.500Z,0
2018-04-15T01:10:13.175Z,0
2018-04-15T01:10:58.794Z,0
2018-04-15T01:11:58.561Z,0
2018-04-15T01:12:58.629Z,0
2018-04-15T01:13:58.855Z,0
2018-04-15T01:14:58.875Z,0
2018-04-15T01:16:13.563Z,0
2018-04-15T01:16:58.660Z,0
2018-04-15T01:18:58.960Z,0
2018-04-15T01:19:58.976Z,0
2018-04-15T01:20:58.996Z,0
2018-04-15T01:21:59.022Z,0
2018-04-15T01:23:59.057Z,0
2018-04-15T01:24:59.085Z,0
2018-04-15T01:25:59.101Z,0
2018-04-15T01:26:58.857Z,0
2018-04-15T01:27:58.875Z,0
2018-04-15T01:28:59.156Z,0
2018-04-15T01:29:58.917Z,0
2018-04-15T01:30:58.934Z,0
2018-04-15T01:31:59.224Z,0
2018-04-15T01:32:58.712Z,0
2018-04-15T01:34:13.655Z,0
2018-04-15T01:34:59.017Z,0
2018-04-15T01:36:13.960Z,0
2018-04-15T01:36:59.051Z,0
2018-04-15T01:37:59.435Z,0
2018-04-15T01:38:59.093Z,0
2018-04-15T01:39:59.379Z,0
2018-04-15T01:40:59.134Z,0
2018-04-15T01:41:59.152Z,0
2018-04-15T01:42:59.435Z,0
2018-04-15T01:43:59.452Z,0
2018-04-15T01:44:59.210Z,0
2018-04-15T01:45:59.501Z,0
2018-04-15T01:47:14.166Z,0
2018-04-15T01:48:28.844Z,0
2018-04-15T01:48:59.645Z,0
2018-04-15T01:49:59.565Z,0
2018-04-15T01:50:59.595Z,0
2018-04-15T01:51:59.347Z,0
2018-04-15T01:52:59.678Z,0
2018-04-15T01:54:14.306Z,0
2018-04-15T01:54:59.662Z,0
2018-04-15T01:56:14.341Z,0
2018-04-15T01:56:59.702Z,0
2018-04-15T01:57:59.466Z,0
2018-04-15T01:58:59.744Z,0
2018-04-15T02:00:59.780Z,0
2018-04-15T02:01:59.799Z,0
2018-04-15T02:02:59.825Z,0
2018-04-15T02:04:14.245Z,0
2018-04-15T02:04:59.861Z,0
2018-04-15T02:06:14.279Z,0
2018-04-15T02:06:59.945Z,0
2018-04-15T02:08:00.022Z,0
2018-04-15T02:08:59.679Z,0
2018-04-15T02:09:59.703Z,0
2018-04-15T02:10:59.981Z,0
2018-04-15T02:13:00.024Z,0
2018-04-15T02:14:00.036Z,0
2018-04-15T02:14:59.800Z,0
2018-04-15T02:15:59.820Z,0
2018-04-15T02:17:00.231Z,0
2018-04-15T02:18:14.775Z,0
2018-04-15T02:19:00.136Z,0
2018-04-15T02:20:14.296Z,0
2018-04-15T02:21:59.677Z,0
2018-04-15T02:22:59.696Z,0
2018-04-15T02:23:59.980Z,0
2018-04-15T02:24:59.994Z,0
2018-04-15T02:26:00.272Z,0
2018-04-15T02:27:14.959Z,0
2018-04-15T02:28:00.312Z,0
2018-04-15T02:29:00.086Z,0
2018-04-15T02:30:00.354Z,0
2018-04-15T02:31:00.127Z,0
2018-04-15T02:32:00.394Z,0
2018-04-15T02:33:15.072Z,0
2018-04-15T02:33:59.919Z,0
2018-04-15T02:35:00.201Z,0
2018-04-15T02:36:15.134Z,0
2018-04-15T02:39:00.531Z,0
2018-04-15T02:40:00.289Z,0
2018-04-15T02:41:15.228Z,0
2018-04-15T02:42:00.588Z,0
2018-04-15T02:43:00.358Z,0
2018-04-15T02:44:00.371Z,0
2018-04-15T02:45:00.656Z,0
2018-04-15T02:46:00.675Z,0
2018-04-15T02:47:00.702Z,0
2018-04-15T02:48:00.706Z,0
2018-04-15T02:49:00.732Z,0
2018-04-15T02:50:15.405Z,0
2018-04-15T02:51:15.432Z,0
2018-04-15T02:52:00.530Z,0
2018-04-15T02:53:00.552Z,0
2018-04-15T02:54:00.584Z,0
2018-04-15T02:55:00.846Z,0
2018-04-15T02:56:00.885Z,0
2018-04-15T02:57:00.886Z,0
2018-04-15T02:58:15.303Z,0
2018-04-15T02:59:00.928Z,0
2018-04-15T03:00:00.948Z,0
2018-04-15T03:01:00.447Z,0
2018-04-15T03:02:00.993Z,0
2018-04-15T03:03:00.489Z,0
2018-04-15T03:04:01.033Z,0
2018-04-15T03:05:01.048Z,0
2018-04-15T03:06:01.063Z,0
2018-04-15T03:07:01.093Z,0
2018-04-15T03:08:01.184Z,0
2018-04-15T03:09:01.170Z,0
2018-04-15T03:10:01.153Z,0
2018-04-15T03:11:00.905Z,0
2018-04-15T03:12:01.181Z,0
2018-04-15T03:13:01.205Z,0
2018-04-15T03:14:01.428Z,0
2018-04-15T03:15:01.237Z,0
2018-04-15T03:16:01.255Z,0
2018-04-15T03:17:15.427Z,0
2018-04-15T03:18:01.038Z,0
2018-04-15T03:19:01.318Z,0
2018-04-15T03:20:01.352Z,0
2018-04-15T03:21:01.359Z,0
2018-04-15T03:22:16.184Z,0
2018-04-15T03:23:16.051Z,0
2018-04-15T03:24:01.415Z,0
2018-04-15T03:25:01.434Z,0
2018-04-15T03:26:01.452Z,0
2018-04-15T03:27:01.475Z,0
2018-04-15T03:28:01.499Z,0
2018-04-15T03:29:01.514Z,0
2018-04-15T03:30:01.530Z,0
2018-04-15T03:31:01.573Z,0
2018-04-15T03:32:01.575Z,0
2018-04-15T03:33:01.333Z,0
2018-04-15T03:34:01.096Z,0
2018-04-15T03:35:01.372Z,0
2018-04-15T03:36:01.652Z,0
2018-04-15T03:37:01.679Z,0
2018-04-15T03:38:01.691Z,0
2018-04-15T03:39:16.369Z,0
2018-04-15T03:40:01.470Z,0
2018-04-15T03:41:01.760Z,0
2018-04-15T03:42:01.771Z,4
2018-04-15T03:43:01.787Z,4
2018-04-15T03:45:01.311Z,0
2018-04-15T03:46:01.852Z,4
2018-04-15T03:47:01.872Z,4
2018-04-15T03:48:16.544Z,4
2018-04-15T03:49:01.908Z,4
2018-04-15T03:51:01.688Z,8
2018-04-15T03:52:01.709Z,8
2018-04-15T03:53:01.985Z,8
2018-04-15T03:54:01.767Z,12
2018-04-15T03:55:16.689Z,16
2018-04-15T03:56:16.449Z,16
2018-04-15T03:57:02.071Z,20
2018-04-15T03:58:02.087Z,24
2018-04-15T03:59:02.106Z,32
2018-04-15T04:00:01.866Z,40
2018-04-15T04:01:02.156Z,44
2018-04-15T04:02:02.167Z,52
2018-04-15T04:03:01.926Z,56
2018-04-15T04:04:02.204Z,68
2018-04-15T04:05:02.227Z,76
2018-04-15T04:06:01.986Z,84
2018-04-15T04:07:01.746Z,96
2018-04-15T04:08:02.284Z,108
2018-04-15T04:09:16.964Z,124
2018-04-15T04:10:02.335Z,136
2018-04-15T04:11:17.003Z,148
2018-04-15T04:12:02.371Z,160
2018-04-15T04:13:02.384Z,176
2018-04-15T04:14:02.402Z,196
2018-04-15T04:15:02.528Z,220
2018-04-15T04:16:02.182Z,248
2018-04-15T04:18:02.482Z,304
2018-04-15T04:19:17.163Z,336
2018-04-15T04:20:01.759Z,356
2018-04-15T04:21:02.542Z,380
2018-04-15T04:22:02.300Z,404
2018-04-15T04:24:02.602Z,456
2018-04-15T04:25:02.621Z,488
2018-04-15T04:26:31.959Z,536
2018-04-15T04:27:02.662Z,548
2018-04-15T04:28:02.689Z,572
2018-04-15T04:30:02.465Z,600
2018-04-15T04:32:02.242Z,604
2018-04-15T04:33:02.784Z,616
2018-04-15T04:34:02.800Z,652
2018-04-15T04:35:02.823Z,700
2018-04-15T04:36:02.845Z,760
2018-04-15T04:37:02.343Z,820
2018-04-15T04:38:17.542Z,880
2018-04-15T04:39:17.302Z,928
2018-04-15T04:40:02.658Z,968
2018-04-15T04:41:02.432Z,1024
2018-04-15T04:42:02.958Z,1060
2018-04-15T04:43:02.977Z,1084
2018-04-15T04:44:17.396Z,1116
2018-04-15T04:45:02.882Z,1148
2018-04-15T04:46:03.040Z,1200
2018-04-15T04:47:02.802Z,1256
2018-04-15T04:48:03.128Z,1312
2018-04-15T04:49:02.850Z,1372
2018-04-15T04:50:02.859Z,1440
2018-04-15T04:51:03.138Z,1536
2018-04-15T04:52:02.897Z,1660
2018-04-15T04:53:02.923Z,1808
2018-04-15T04:54:03.192Z,1952
2018-04-15T04:55:17.874Z,2184
2018-04-15T04:56:02.986Z,2444
2018-04-15T04:57:02.740Z,2732
2018-04-15T04:58:32.607Z,2632
2018-04-15T04:59:03.297Z,2636
2018-04-15T05:00:03.316Z,2704
2018-04-15T05:01:03.079Z,2800
2018-04-15T05:02:03.354Z,2856
2018-04-15T05:03:03.379Z,2916
2018-04-15T05:04:03.145Z,3072
2018-04-15T05:05:18.142Z,3420
2018-04-15T05:06:02.915Z,3220
2018-04-15T05:07:03.454Z,3172
2018-04-15T05:08:03.220Z,3220
2018-04-15T05:09:03.491Z,3156
2018-04-15T05:10:02.997Z,3040
2018-04-15T05:11:03.549Z,3024
2018-04-15T05:12:03.567Z,3152
2018-04-15T05:13:03.590Z,3360
2018-04-15T05:14:18.003Z,3632
2018-04-15T05:15:03.357Z,3748
2018-04-15T05:16:03.632Z,3868
2018-04-15T05:17:18.317Z,4140
2018-04-15T05:18:03.679Z,4392
2018-04-15T05:19:03.697Z,4396
2018-04-15T05:20:03.460Z,4424
2018-04-15T05:21:03.475Z,4432
2018-04-15T05:22:03.496Z,4556
2018-04-15T05:23:03.777Z,4736
2018-04-15T05:24:03.538Z,5000
2018-04-15T05:25:03.823Z,5256
2018-04-15T05:26:03.577Z,4764
2018-04-15T05:27:03.854Z,4660
2018-04-15T05:29:03.640Z,4520
2018-04-15T05:30:18.582Z,4544
2018-04-15T05:31:03.684Z,4532
2018-04-15T05:32:03.966Z,4360
2018-04-15T05:34:04.002Z,4216
2018-04-15T05:35:03.760Z,4204
2018-04-15T05:36:04.040Z,4224
2018-04-15T05:37:04.065Z,4216
2018-04-15T05:38:04.128Z,4112
2018-04-15T05:39:04.111Z,3928
2018-04-15T05:40:03.864Z,3816
2018-04-15T05:41:04.143Z,3796
2018-04-15T05:42:03.908Z,3844
2018-04-15T05:43:04.192Z,3896
2018-04-15T05:44:03.946Z,3908
2018-04-15T05:45:18.888Z,3872
2018-04-15T05:46:18.649Z,3824
2018-04-15T05:47:04.026Z,3744
2018-04-15T05:48:04.288Z,3508
2018-04-15T05:49:04.309Z,3148
2018-04-15T05:50:04.075Z,2756
2018-04-15T05:52:04.373Z,2488
2018-04-15T05:53:19.047Z,2648
2018-04-15T05:54:04.243Z,2888
2018-04-15T05:55:04.172Z,3236
2018-04-15T05:56:04.451Z,3224
2018-04-15T05:58:04.244Z,3140
2018-04-15T05:59:19.172Z,3020
2018-04-15T06:00:04.541Z,2852
2018-04-15T06:01:19.212Z,2696
2018-04-15T06:02:04.324Z,2752
2018-04-15T06:05:19.415Z,4880
2018-04-15T06:06:04.659Z,5624
2018-04-15T06:07:04.692Z,6416
2018-04-15T06:08:19.359Z,7296
2018-04-15T06:09:04.462Z,7828
2018-04-15T06:10:04.481Z,8360
2018-04-15T06:11:04.500Z,9252
2018-04-15T06:13:04.817Z,11904
2018-04-15T06:14:04.305Z,12472
2018-04-15T06:15:19.568Z,17664
2018-04-15T06:16:04.352Z,13840
2018-04-15T06:17:04.888Z,13348
2018-04-15T06:18:04.921Z,13368
2018-04-15T06:19:04.939Z,21664
2018-04-15T06:20:04.701Z,18912
2018-04-15T06:21:04.969Z,17376
2018-04-15T06:22:04.473Z,12484
2018-04-15T06:23:04.754Z,12216
2018-04-15T06:24:05.036Z,10120
2018-04-15T06:25:04.801Z,8164
2018-04-15T06:27:05.101Z,5892
2018-04-15T06:28:04.606Z,5456
2018-04-15T06:29:05.145Z,5116
2018-04-15T06:30:04.647Z,4752
2018-04-15T06:31:05.195Z,4448
2018-04-15T06:32:04.949Z,4316
2018-04-15T06:33:19.632Z,4356
2018-04-15T06:34:05.255Z,4460
2018-04-15T06:35:05.294Z,4656
2018-04-15T06:36:04.791Z,4884
2018-04-15T06:37:05.063Z,5160
2018-04-15T06:38:05.344Z,5540
2018-04-15T06:39:04.846Z,6256
2018-04-15T06:40:04.921Z,7500
2018-04-15T06:41:20.063Z,9788
2018-04-15T06:42:04.911Z,10652
2018-04-15T06:43:05.449Z,13788
2018-04-15T06:44:05.210Z,19040
2018-04-15T06:45:05.242Z,16992
2018-04-15T06:46:05.264Z,16068
2018-04-15T06:48:05.299Z,14096
2018-04-15T06:49:20.416Z,14088
2018-04-15T06:50:20.003Z,15208
2018-04-15T06:51:05.627Z,14972
2018-04-15T06:53:05.413Z,19072
2018-04-15T06:54:05.692Z,19392
2018-04-15T06:55:20.412Z,24768
2018-04-15T06:57:20.423Z,22656
2018-04-15T06:58:05.790Z,26016
2018-04-15T06:59:20.203Z,22816
2018-04-15T07:00:05.831Z,26784
2018-04-15T07:01:05.858Z,26784
2018-04-15T07:02:05.872Z,27424
2018-04-15T07:03:05.900Z,28992
2018-04-15T07:04:05.924Z,33568
2018-04-15T07:05:20.599Z,31968
2018-04-15T07:06:05.966Z,32416
2018-04-15T07:07:06.004Z,32352
2018-04-15T07:08:05.797Z,34400
2018-04-15T07:09:06.048Z,34528
2018-04-15T07:10:06.061Z,36288
2018-04-15T07:11:06.083Z,36832
2018-04-15T07:12:06.105Z,31648
2018-04-15T07:13:20.790Z,32736
2018-04-15T07:14:06.164Z,33344
2018-04-15T07:15:20.581Z,28416
2018-04-15T07:16:05.685Z,28800
2018-04-15T07:17:06.034Z,28800
2018-04-15T07:18:06.255Z,28416
2018-04-15T07:19:06.285Z,29152
2018-04-15T07:20:05.784Z,35136
2018-04-15T07:21:20.983Z,38624
2018-04-15T07:22:06.090Z,37216
2018-04-15T07:23:05.860Z,36768
2018-04-15T07:25:06.436Z,34784
2018-04-15T07:26:06.188Z,32064
2018-04-15T07:27:06.214Z,30592
2018-04-15T07:28:05.985Z,32960
2018-04-15T07:29:06.270Z,36032
2018-04-15T07:30:06.289Z,36608
2018-04-15T07:31:21.243Z,32416
2018-04-15T07:32:06.605Z,34176
2018-04-15T07:33:06.638Z,36160
2018-04-15T07:34:06.679Z,41504
2018-04-15T07:35:06.156Z,42688
2018-04-15T07:36:21.172Z,45280
2018-04-15T07:37:06.730Z,47840
2018-04-15T07:38:21.252Z,50784
2018-04-15T07:39:06.517Z,48096
2018-04-15T07:40:06.806Z,40768
2018-04-15T07:42:06.866Z,35104
2018-04-15T07:43:06.626Z,34976
2018-04-15T07:44:21.317Z,38976
2018-04-15T07:45:06.935Z,37056
2018-04-15T07:46:06.959Z,40256
2018-04-15T07:47:07.009Z,47904
2018-04-15T07:48:06.859Z,48064
2018-04-15T07:49:06.779Z,40448
2018-04-15T07:50:07.064Z,40896
2018-04-15T07:51:06.575Z,40480
2018-04-15T07:52:06.859Z,38080
2018-04-15T07:53:07.161Z,39008
2018-04-15T07:54:21.840Z,41728
2018-04-15T07:55:06.942Z,40512
2018-04-15T07:56:06.966Z,40672
2018-04-15T07:57:06.994Z,43744
2018-04-15T07:58:07.284Z,41408
2018-04-15T07:59:07.052Z,45440
2018-04-15T08:00:06.813Z,43296
2018-04-15T08:01:21.766Z,40000
2018-04-15T08:02:07.393Z,39776
2018-04-15T08:03:07.161Z,39296
2018-04-15T08:04:07.442Z,41664
2018-04-15T08:05:07.218Z,43360
2018-04-15T08:06:07.504Z,40192
2018-04-15T08:07:07.536Z,38176
2018-04-15T08:08:22.216Z,39040
2018-04-15T08:09:07.599Z,38528
2018-04-15T08:10:07.352Z,37920
2018-04-15T08:11:07.377Z,35328
2018-04-15T08:12:22.332Z,40032
2018-04-15T08:13:07.436Z,38208
2018-04-15T08:14:22.387Z,38464
2018-04-15T08:15:22.405Z,40352
2018-04-15T08:16:07.527Z,41952
2018-04-15T08:17:07.609Z,39264
2018-04-15T08:18:07.568Z,38624
2018-04-15T08:19:07.601Z,35648
2018-04-15T08:20:07.626Z,32384
2018-04-15T08:21:07.393Z,33824
2018-04-15T08:22:07.686Z,32704
2018-04-15T08:23:07.448Z,32736
2018-04-15T08:24:22.654Z,32768
2018-04-15T08:25:07.512Z,33280
2018-04-15T08:26:07.531Z,33984
2018-04-15T08:27:22.478Z,33408
2018-04-15T08:28:08.105Z,31872
2018-04-15T08:30:08.222Z,35360
2018-04-15T08:31:08.289Z,36480
2018-04-15T08:32:08.218Z,36448
2018-04-15T08:33:07.989Z,36000
2018-04-15T08:34:09.016Z,35296
2018-04-15T08:35:08.309Z,30432
2018-04-15T08:36:08.332Z,29792
2018-04-15T08:37:08.101Z,31872
2018-04-15T08:38:08.123Z,32512
2018-04-15T08:39:08.152Z,34464
2018-04-15T08:40:22.885Z,36768
2018-04-15T08:41:08.471Z,38176
2018-04-15T08:42:08.496Z,37152
2018-04-15T08:43:08.525Z,34880
2018-04-15T08:44:08.033Z,38688
2018-04-15T08:45:23.240Z,38784
2018-04-15T08:46:23.269Z,41248
2018-04-15T08:47:08.648Z,42048
2018-04-15T08:48:08.407Z,42624
2018-04-15T08:49:08.692Z,39744
2018-04-15T08:50:08.730Z,38720
2018-04-15T08:51:23.148Z,39616
2018-04-15T08:52:08.258Z,40288
2018-04-15T08:53:08.809Z,37952
2018-04-15T08:55:08.868Z,26976
2018-04-15T08:56:23.560Z,25696
2018-04-15T08:57:08.923Z,25760
2018-04-15T08:58:08.695Z,25952
2018-04-15T08:59:08.985Z,25632
2018-04-15T09:00:08.752Z,25472
2018-04-15T09:01:08.541Z,25216
2018-04-15T09:03:08.582Z,24096
2018-04-15T09:04:08.871Z,24096
2018-04-15T09:05:08.899Z,23840
2018-04-15T09:06:09.208Z,23776
2018-04-15T09:07:08.959Z,23776
2018-04-15T09:08:08.997Z,23296
2018-04-15T09:09:08.861Z,24032
2018-04-15T09:10:09.051Z,22752
2018-04-15T09:11:24.006Z,21472
2018-04-15T09:12:09.371Z,22528
2018-04-15T09:13:23.801Z,20992
2018-04-15T09:14:09.429Z,22720
2018-04-15T09:15:08.942Z,23360
2018-04-15T09:16:09.237Z,20256
2018-04-15T09:17:09.261Z,21760
2018-04-15T09:18:09.306Z,16852
2018-04-15T09:19:09.582Z,18304
2018-04-15T09:20:24.278Z,21248
2018-04-15T09:21:09.643Z,21472
2018-04-15T09:22:09.677Z,21984
2018-04-15T09:23:09.751Z,21792
2018-04-15T09:25:09.503Z,20480
2018-04-15T09:26:09.802Z,20192
2018-04-15T09:27:24.225Z,19968
2018-04-15T09:28:09.599Z,19776
2018-04-15T09:29:09.885Z,19584
2018-04-15T09:30:09.804Z,19264
2018-04-15T09:31:09.689Z,19104
2018-04-15T09:32:09.712Z,17372
2018-04-15T09:33:10.011Z,19104
2018-04-15T09:34:24.701Z,18464
2018-04-15T09:35:09.807Z,18368
2018-04-15T09:36:09.836Z,18816
2018-04-15T09:37:09.865Z,18528
2018-04-15T09:38:09.897Z,18528
2018-04-15T09:39:10.185Z,18368
2018-04-15T09:40:09.955Z,18208
2018-04-15T09:41:25.067Z,18112
2018-04-15T09:42:10.016Z,18016
2018-04-15T09:43:39.629Z,17344
2018-04-15T09:44:09.583Z,17600
2018-04-15T09:45:10.113Z,17352
2018-04-15T09:46:10.394Z,17296
2018-04-15T09:47:10.430Z,16872
2018-04-15T09:48:09.939Z,17004
2018-04-15T09:49:10.229Z,16948
2018-04-15T09:50:25.179Z,16768
2018-04-15T09:51:10.555Z,16740
2018-04-15T09:52:24.980Z,16616
2018-04-15T09:53:10.624Z,16568
2018-04-15T09:54:10.641Z,16480
2018-04-15T09:55:10.676Z,16416
2018-04-15T09:56:10.196Z,16320
2018-04-15T09:57:10.476Z,16292
2018-04-15T09:58:25.423Z,16192
2018-04-15T09:59:40.114Z,16124
2018-04-15T10:00:10.566Z,16100
2018-04-15T10:01:10.599Z,16080
2018-04-15T10:02:10.886Z,15964
2018-04-15T10:03:10.653Z,15804
2018-04-15T10:04:25.607Z,15436
2018-04-15T10:05:10.712Z,14600
2018-04-15T10:06:10.488Z,13964
2018-04-15T10:07:10.779Z,11868
2018-04-15T10:08:11.075Z,14748
2018-04-15T10:09:11.093Z,14624
2018-04-15T10:10:10.608Z,15048
2018-04-15T10:11:10.895Z,15396
2018-04-15T10:12:10.923Z,13676
2018-04-15T10:13:10.957Z,14436
2018-04-15T10:14:11.245Z,14888
2018-04-15T10:15:40.595Z,14540
2018-04-15T10:16:10.786Z,14820
2018-04-15T10:17:11.331Z,15564
2018-04-15T10:18:10.851Z,16188
2018-04-15T10:19:11.138Z,16112
2018-04-15T10:20:11.424Z,16228
2018-04-15T10:21:11.462Z,16352
2018-04-15T10:22:11.509Z,16348
2018-04-15T10:24:12.180Z,16176
2018-04-15T10:25:25.972Z,16048
2018-04-15T10:26:11.348Z,16008
2018-04-15T10:27:11.628Z,15800
2018-04-15T10:28:11.659Z,15696
2018-04-15T10:29:11.168Z,15740
2018-04-15T10:30:11.557Z,15512
2018-04-15T10:31:26.409Z,15428
2018-04-15T10:32:11.779Z,15528
2018-04-15T10:33:11.803Z,14680
2018-04-15T10:34:11.833Z,14512
2018-04-15T10:35:11.870Z,15632
2018-04-15T10:36:11.892Z,14896
2018-04-15T10:37:11.670Z,15056
2018-04-15T10:38:26.611Z,15288
2018-04-15T10:39:11.723Z,15288
2018-04-15T10:40:12.012Z,15028
2018-04-15T10:41:11.523Z,15132
2018-04-15T10:42:11.658Z,14804
2018-04-15T10:43:12.112Z,14632
2018-04-15T10:44:12.127Z,14620
2018-04-15T10:45:26.813Z,14688
2018-04-15T10:46:41.502Z,14600
2018-04-15T10:47:12.215Z,14296
2018-04-15T10:48:26.907Z,13884
2018-04-15T10:49:12.276Z,14240
2018-04-15T10:50:12.296Z,13904
2018-04-15T10:51:12.334Z,14244
2018-04-15T10:52:12.349Z,13872
2018-04-15T10:53:11.861Z,13520
2018-04-15T10:54:12.147Z,13260
2018-04-15T10:55:12.177Z,12880
2018-04-15T10:56:12.528Z,12544
2018-04-15T10:57:12.233Z,12176
2018-04-15T10:58:12.519Z,11932
2018-04-15T10:59:12.289Z,11692
2018-04-15T11:00:12.313Z,11380
2018-04-15T11:01:12.085Z,11092
2018-04-15T11:02:12.647Z,10748
2018-04-15T11:03:12.655Z,10468
2018-04-15T11:05:12.716Z,9992
2018-04-15T11:06:12.485Z,9696
2018-04-15T11:07:12.787Z,9464
2018-04-15T11:08:27.456Z,9192
2018-04-15T11:09:12.559Z,9020
2018-04-15T11:10:27.516Z,8804
2018-04-15T11:11:12.356Z,8672
2018-04-15T11:12:12.906Z,8488
2018-04-15T11:13:12.928Z,8312
2018-04-15T11:14:13.264Z,8176
2018-04-15T11:15:12.984Z,8052
2018-04-15T11:16:12.751Z,7572
2018-04-15T11:17:27.712Z,7848
2018-04-15T11:18:42.386Z,7616
2018-04-15T11:19:13.103Z,7636
2018-04-15T11:20:12.909Z,7592
2018-04-15T11:21:27.810Z,7516
2018-04-15T11:22:12.656Z,7008
2018-04-15T11:23:12.939Z,7660
2018-04-15T11:24:13.233Z,7584
2018-04-15T11:25:13.265Z,7468
2018-04-15T11:26:13.335Z,7612
2018-04-15T11:27:27.709Z,7584
2018-04-15T11:29:13.104Z,7592
2018-04-15T11:30:13.398Z,7676
2018-04-15T11:32:13.188Z,7600
2018-04-15T11:33:13.207Z,7480
2018-04-15T11:34:27.907Z,7404
2018-04-15T11:35:13.264Z,7368
2018-04-15T11:36:27.955Z,7416
2018-04-15T11:37:13.318Z,7348
2018-04-15T11:38:13.347Z,7528
2018-04-15T11:39:13.627Z,7572
2018-04-15T11:40:13.653Z,7624
2018-04-15T11:41:28.340Z,7564
2018-04-15T11:42:13.718Z,7636
2018-04-15T11:44:28.164Z,7660
2018-04-15T11:46:28.528Z,7684
2018-04-15T11:47:13.580Z,7696
2018-04-15T11:48:28.526Z,7704
2018-04-15T11:49:28.296Z,7724
2018-04-15T11:50:28.584Z,7744
2018-04-15T11:51:13.207Z,7756
2018-04-15T11:52:14.018Z,7628
2018-04-15T11:53:13.999Z,7676
2018-04-15T11:54:14.028Z,7312
2018-04-15T11:55:14.057Z,7184
2018-04-15T11:56:14.082Z,7676
2018-04-15T11:57:13.588Z,7796
2018-04-15T11:58:13.876Z,7376
2018-04-15T11:59:14.165Z,7172
2018-04-15T12:00:13.930Z,7604
2018-04-15T12:01:14.214Z,8004
2018-04-15T12:02:14.044Z,7724
2018-04-15T12:03:28.926Z,7828
2018-04-15T12:04:28.952Z,8460
2018-04-15T12:05:14.321Z,8196
2018-04-15T12:06:43.671Z,8672
2018-04-15T12:07:14.378Z,8744
2018-04-15T12:08:14.404Z,9008
2018-04-15T12:09:14.164Z,9356
2018-04-15T12:10:28.594Z,8540
2018-04-15T12:11:14.485Z,8328
2018-04-15T12:12:14.503Z,8476
2018-04-15T12:13:14.631Z,8972
2018-04-15T12:14:14.560Z,8860
2018-04-15T12:15:14.585Z,8832
2018-04-15T12:16:14.355Z,9180
2018-04-15T12:17:29.045Z,9396
2018-04-15T12:18:14.671Z,8848
2018-04-15T12:19:14.693Z,8772
2018-04-15T12:21:29.405Z,8736
2018-04-15T12:22:14.875Z,9420
2018-04-15T12:23:14.540Z,8968
2018-04-15T12:24:14.830Z,8800
2018-04-15T12:25:14.860Z,8904
2018-04-15T12:26:14.882Z,9280
2018-04-15T12:27:14.908Z,9508
2018-04-15T12:28:14.942Z,10732
2018-04-15T12:29:14.701Z,10528
2018-04-15T12:30:29.648Z,9716
2018-04-15T12:31:15.015Z,9492
2018-04-15T12:32:15.042Z,9496
2018-04-15T12:33:15.070Z,9740
2018-04-15T12:34:15.094Z,9356
2018-04-15T12:36:29.815Z,9772
2018-04-15T12:37:29.577Z,9756
2018-04-15T12:38:15.207Z,9332
2018-04-15T12:39:15.229Z,8960
2018-04-15T12:40:15.156Z,9520
2018-04-15T12:41:15.291Z,10564
2018-04-15T12:42:15.354Z,10620
2018-04-15T12:43:15.348Z,10948
2018-04-15T12:44:15.373Z,10788
2018-04-15T12:45:15.137Z,10736
2018-04-15T12:46:15.428Z,10548
2018-04-15T12:47:15.458Z,11132
2018-04-15T12:48:15.213Z,10760
2018-04-15T12:49:15.501Z,11076
2018-04-15T12:50:30.185Z,10900
2018-04-15T12:51:15.556Z,10856
2018-04-15T12:52:15.579Z,11008
2018-04-15T12:53:44.923Z,11084
2018-04-15T12:54:30.032Z,11104
2018-04-15T12:55:15.401Z,11208
2018-04-15T12:56:15.432Z,10912
2018-04-15T12:57:15.192Z,10276
2018-04-15T12:58:15.747Z,10856
2018-04-15T13:00:15.276Z,10696
2018-04-15T13:01:15.829Z,11892
2018-04-15T13:02:15.847Z,11808
2018-04-15T13:03:15.877Z,11464
2018-04-15T13:04:15.906Z,11036
2018-04-15T13:05:15.687Z,11036
2018-04-15T13:06:15.853Z,10884
2018-04-15T13:07:30.641Z,10600
2018-04-15T13:08:15.753Z,10540
2018-04-15T13:09:30.703Z,10236
2018-04-15T13:10:16.068Z,10196
2018-04-15T13:13:15.883Z,10052
2018-04-15T13:14:15.908Z,9960
2018-04-15T13:15:30.857Z,9680
2018-04-15T13:16:30.888Z,10388
2018-04-15T13:17:16.250Z,10784
2018-04-15T13:19:16.050Z,11924
2018-04-15T13:20:16.335Z,10772
2018-04-15T13:21:31.021Z,10052
2018-04-15T13:22:16.604Z,10208
2018-04-15T13:23:16.418Z,10996
2018-04-15T13:24:31.098Z,11036
2018-04-15T13:25:30.607Z,10916
2018-04-15T13:26:30.893Z,10972
2018-04-15T13:27:16.520Z,10492
2018-04-15T13:28:16.546Z,10204
2018-04-15T13:29:16.625Z,9928
2018-04-15T13:30:16.609Z,10208
2018-04-15T13:31:16.635Z,10388
2018-04-15T13:32:31.314Z,9564
2018-04-15T13:33:16.684Z,10712
2018-04-15T13:34:16.717Z,10836
2018-04-15T13:35:16.503Z,10700
2018-04-15T13:36:16.761Z,10116
2018-04-15T13:37:16.794Z,9552
2018-04-15T13:38:16.829Z,8468
2018-04-15T13:39:16.585Z,9940
2018-04-15T13:40:16.645Z,9380
2018-04-15T13:41:31.299Z,9564
2018-04-15T13:42:16.674Z,9792
2018-04-15T13:43:16.963Z,8892
2018-04-15T13:44:16.983Z,9064
2018-04-15T13:45:17.008Z,9476
2018-04-15T13:46:16.775Z,8592
2018-04-15T13:47:17.067Z,9612
2018-04-15T13:48:31.746Z,9360
2018-04-15T13:49:17.115Z,10184
2018-04-15T13:50:31.807Z,9904
2018-04-15T13:52:17.199Z,9968
2018-04-15T13:53:17.082Z,8756
2018-04-15T13:54:17.266Z,9408
2018-04-15T13:55:17.278Z,9100
2018-04-15T13:56:31.979Z,8984
2018-04-15T13:57:31.730Z,8616
2018-04-15T13:58:17.101Z,8176
2018-04-15T13:59:17.133Z,8064
2018-04-15T14:00:17.423Z,8444
2018-04-15T14:01:17.444Z,8148
2018-04-15T14:03:17.502Z,8784
2018-04-15T14:04:17.523Z,8632
2018-04-15T14:05:17.284Z,8036
2018-04-15T14:06:17.313Z,8132
2018-04-15T14:07:17.342Z,8908
2018-04-15T14:08:17.371Z,7772
2018-04-15T14:09:32.314Z,7308
2018-04-15T14:10:17.424Z,7300
2018-04-15T14:12:17.475Z,8156
2018-04-15T14:13:17.761Z,8852
2018-04-15T14:14:17.786Z,7860
2018-04-15T14:16:32.502Z,7648
2018-04-15T14:17:17.871Z,7876
2018-04-15T14:18:17.928Z,7704
2018-04-15T14:19:32.583Z,8428
2018-04-15T14:20:17.948Z,8676